sensor_id;sensor_type;location;lat;lon;timestamp;temperature;humidity
15630;DHT22;7914;50.842;0.166;2023-06-19T00:00:31;16.70;100.00
15630;DHT22;7914;50.842;0.166;2023-06-19T00:02:56;16.70;100.00
15630;DHT22;7914;50.842;0.166;2023-06-19T00:05:22;16.70;100.00
15630;DHT22;7914;50.842;0.166;2023-06-19T00:07:51;16.70;100.00
15630;DHT22;7914;50.842;0.166;2023-06-19T00:10:17;16.70;100.00
15630;DHT22;7914;50.842;0.166;2023-06-19T00:12:42;16.70;100.00
15630;DHT22;7914;50.842;0.166;2023-06-19T00:15:08;16.70;100.00
15630;DHT22;7914;50.842;0.166;2023-06-19T00:17:35;16.70;100.00
15630;DHT22;7914;50.842;0.166;2023-06-19T00:20:03;16.60;100.00
15630;DHT22;7914;50.842;0.166;2023-06-19T00:22:29;16.60;100.00
15630;DHT22;7914;50.842;0.166;2023-06-19T00:24:55;16.50;100.00
15630;DHT22;7914;50.842;0.166;2023-06-19T00:27:21;16.50;100.00
15630;DHT22;7914;50.842;0.166;2023-06-19T00:29:46;16.40;100.00
15630;DHT22;7914;50.842;0.166;2023-06-19T00:32:12;16.40;100.00
15630;DHT22;7914;50.842;0.166;2023-06-19T00:34:38;16.50;100.00
15630;DHT22;7914;50.842;0.166;2023-06-19T00:37:04;16.50;100.00
15630;DHT22;7914;50.842;0.166;2023-06-19T00:39:29;16.50;100.00
15630;DHT22;7914;50.842;0.166;2023-06-19T00:41:56;16.50;100.00
15630;DHT22;7914;50.842;0.166;2023-06-19T00:44:22;16.50;100.00
15630;DHT22;7914;50.842;0.166;2023-06-19T00:46:57;16.50;100.00
15630;DHT22;7914;50.842;0.166;2023-06-19T00:49:25;16.50;100.00
15630;DHT22;7914;50.842;0.166;2023-06-19T00:51:52;16.50;100.00
15630;DHT22;7914;50.842;0.166;2023-06-19T00:54:19;16.50;100.00
15630;DHT22;7914;50.842;0.166;2023-06-19T00:56:44;16.60;100.00
15630;DHT22;7914;50.842;0.166;2023-06-19T00:59:20;16.60;100.00
15630;DHT22;7914;50.842;0.166;2023-06-19T01:01:46;16.70;100.00
15630;DHT22;7914;50.842;0.166;2023-06-19T01:04:12;16.60;100.00
15630;DHT22;7914;50.842;0.166;2023-06-19T01:06:54;16.60;100.00
15630;DHT22;7914;50.842;0.166;2023-06-19T01:09:31;16.70;100.00
15630;DHT22;7914;50.842;0.166;2023-06-19T01:12:04;16.70;100.00
15630;DHT22;7914;50.842;0.166;2023-06-19T01:15:04;16.70;100.00
15630;DHT22;7914;50.842;0.166;2023-06-19T01:17:31;16.60;100.00
15630;DHT22;7914;50.842;0.166;2023-06-19T01:19:58;16.60;100.00
15630;DHT22;7914;50.842;0.166;2023-06-19T01:22:28;16.60;100.00
15630;DHT22;7914;50.842;0.166;2023-06-19T01:24:55;16.60;100.00
15630;DHT22;7914;50.842;0.166;2023-06-19T01:27:22;16.70;100.00
15630;DHT22;7914;50.842;0.166;2023-06-19T01:29:48;16.70;100.00
15630;DHT22;7914;50.842;0.166;2023-06-19T01:32:22;16.70;100.00
15630;DHT22;7914;50.842;0.166;2023-06-19T01:34:52;16.70;100.00
15630;DHT22;7914;50.842;0.166;2023-06-19T01:37:18;16.70;100.00
15630;DHT22;7914;50.842;0.166;2023-06-19T01:39:45;16.70;100.00
15630;DHT22;7914;50.842;0.166;2023-06-19T01:42:11;16.70;100.00
15630;DHT22;7914;50.842;0.166;2023-06-19T01:44:38;16.60;100.00
15630;DHT22;7914;50.842;0.166;2023-06-19T01:47:09;16.60;100.00
15630;DHT22;7914;50.842;0.166;2023-06-19T01:49:35;16.60;100.00
15630;DHT22;7914;50.842;0.166;2023-06-19T01:52:01;16.60;100.00
15630;DHT22;7914;50.842;0.166;2023-06-19T01:54:27;16.60;100.00
15630;DHT22;7914;50.842;0.166;2023-06-19T01:56:53;16.50;100.00
15630;DHT22;7914;50.842;0.166;2023-06-19T01:59:19;16.50;100.00
15630;DHT22;7914;50.842;0.166;2023-06-19T02:01:45;16.50;100.00
15630;DHT22;7914;50.842;0.166;2023-06-19T02:04:10;16.40;100.00
15630;DHT22;7914;50.842;0.166;2023-06-19T02:06:36;16.40;100.00
15630;DHT22;7914;50.842;0.166;2023-06-19T02:09:02;16.50;100.00
15630;DHT22;7914;50.842;0.166;2023-06-19T02:11:27;16.50;100.00
15630;DHT22;7914;50.842;0.166;2023-06-19T02:13:53;16.50;100.00
15630;DHT22;7914;50.842;0.166;2023-06-19T02:16:19;16.50;100.00
15630;DHT22;7914;50.842;0.166;2023-06-19T02:18:45;16.50;100.00
15630;DHT22;7914;50.842;0.166;2023-06-19T02:21:10;16.50;100.00
15630;DHT22;7914;50.842;0.166;2023-06-19T02:23:36;16.50;100.00
15630;DHT22;7914;50.842;0.166;2023-06-19T02:26:02;16.50;100.00
15630;DHT22;7914;50.842;0.166;2023-06-19T02:28:28;16.60;100.00
15630;DHT22;7914;50.842;0.166;2023-06-19T02:30:54;16.60;100.00
15630;DHT22;7914;50.842;0.166;2023-06-19T02:33:20;16.60;100.00
15630;DHT22;7914;50.842;0.166;2023-06-19T02:35:46;16.60;100.00
15630;DHT22;7914;50.842;0.166;2023-06-19T02:38:11;16.60;100.00
15630;DHT22;7914;50.842;0.166;2023-06-19T02:40:40;16.60;100.00
15630;DHT22;7914;50.842;0.166;2023-06-19T02:43:06;16.60;100.00
15630;DHT22;7914;50.842;0.166;2023-06-19T02:45:31;16.60;100.00
15630;DHT22;7914;50.842;0.166;2023-06-19T02:47:58;16.60;100.00
15630;DHT22;7914;50.842;0.166;2023-06-19T02:50:23;16.60;100.00
15630;DHT22;7914;50.842;0.166;2023-06-19T02:52:49;16.60;100.00
15630;DHT22;7914;50.842;0.166;2023-06-19T02:55:15;16.60;100.00
15630;DHT22;7914;50.842;0.166;2023-06-19T02:57:40;16.60;100.00
15630;DHT22;7914;50.842;0.166;2023-06-19T03:00:07;16.60;100.00
15630;DHT22;7914;50.842;0.166;2023-06-19T03:02:34;16.60;100.00
15630;DHT22;7914;50.842;0.166;2023-06-19T03:05:00;16.60;100.00
15630;DHT22;7914;50.842;0.166;2023-06-19T03:07:26;16.50;100.00
15630;DHT22;7914;50.842;0.166;2023-06-19T03:09:54;16.50;100.00
15630;DHT22;7914;50.842;0.166;2023-06-19T03:12:20;16.50;100.00
15630;DHT22;7914;50.842;0.166;2023-06-19T03:14:45;16.50;100.00
15630;DHT22;7914;50.842;0.166;2023-06-19T03:17:12;16.50;100.00
15630;DHT22;7914;50.842;0.166;2023-06-19T03:19:38;16.50;100.00
15630;DHT22;7914;50.842;0.166;2023-06-19T03:22:04;16.50;100.00
15630;DHT22;7914;50.842;0.166;2023-06-19T03:24:30;16.50;100.00
15630;DHT22;7914;50.842;0.166;2023-06-19T03:26:56;16.50;100.00
15630;DHT22;7914;50.842;0.166;2023-06-19T03:29:21;16.50;100.00
15630;DHT22;7914;50.842;0.166;2023-06-19T03:31:47;16.50;100.00
15630;DHT22;7914;50.842;0.166;2023-06-19T03:34:13;16.50;100.00
15630;DHT22;7914;50.842;0.166;2023-06-19T03:36:38;16.50;100.00
15630;DHT22;7914;50.842;0.166;2023-06-19T03:39:04;16.50;100.00
15630;DHT22;7914;50.842;0.166;2023-06-19T03:41:30;16.40;100.00
15630;DHT22;7914;50.842;0.166;2023-06-19T03:43:56;16.40;100.00
15630;DHT22;7914;50.842;0.166;2023-06-19T03:46:21;16.40;100.00
15630;DHT22;7914;50.842;0.166;2023-06-19T03:48:47;16.40;100.00
15630;DHT22;7914;50.842;0.166;2023-06-19T03:51:13;16.40;100.00
15630;DHT22;7914;50.842;0.166;2023-06-19T03:53:38;16.40;100.00
15630;DHT22;7914;50.842;0.166;2023-06-19T03:56:04;16.40;100.00
15630;DHT22;7914;50.842;0.166;2023-06-19T03:58:29;16.30;100.00
15630;DHT22;7914;50.842;0.166;2023-06-19T04:00:55;16.30;100.00
15630;DHT22;7914;50.842;0.166;2023-06-19T04:03:21;16.30;100.00
15630;DHT22;7914;50.842;0.166;2023-06-19T04:05:47;16.30;100.00
15630;DHT22;7914;50.842;0.166;2023-06-19T04:08:12;16.30;100.00
15630;DHT22;7914;50.842;0.166;2023-06-19T04:10:38;16.40;100.00
15630;DHT22;7914;50.842;0.166;2023-06-19T04:13:04;16.30;100.00
15630;DHT22;7914;50.842;0.166;2023-06-19T04:15:32;16.30;100.00
15630;DHT22;7914;50.842;0.166;2023-06-19T04:17:59;16.20;100.00
15630;DHT22;7914;50.842;0.166;2023-06-19T04:20:26;16.20;100.00
15630;DHT22;7914;50.842;0.166;2023-06-19T04:22:52;16.20;100.00
15630;DHT22;7914;50.842;0.166;2023-06-19T04:25:17;16.10;100.00
15630;DHT22;7914;50.842;0.166;2023-06-19T04:27:44;16.10;100.00
15630;DHT22;7914;50.842;0.166;2023-06-19T04:30:12;16.10;100.00
15630;DHT22;7914;50.842;0.166;2023-06-19T04:32:38;16.00;100.00
15630;DHT22;7914;50.842;0.166;2023-06-19T04:35:08;16.00;100.00
15630;DHT22;7914;50.842;0.166;2023-06-19T04:37:34;15.90;100.00
15630;DHT22;7914;50.842;0.166;2023-06-19T04:40:00;15.90;100.00
15630;DHT22;7914;50.842;0.166;2023-06-19T04:42:25;16.00;100.00
15630;DHT22;7914;50.842;0.166;2023-06-19T04:44:52;16.10;100.00
15630;DHT22;7914;50.842;0.166;2023-06-19T04:47:19;16.10;100.00
15630;DHT22;7914;50.842;0.166;2023-06-19T04:49:46;16.10;100.00
15630;DHT22;7914;50.842;0.166;2023-06-19T04:52:11;16.20;100.00
15630;DHT22;7914;50.842;0.166;2023-06-19T04:54:37;16.20;100.00
15630;DHT22;7914;50.842;0.166;2023-06-19T04:57:03;16.20;100.00
15630;DHT22;7914;50.842;0.166;2023-06-19T04:59:30;16.30;100.00
15630;DHT22;7914;50.842;0.166;2023-06-19T05:01:56;16.70;100.00
15630;DHT22;7914;50.842;0.166;2023-06-19T05:04:23;17.20;100.00
15630;DHT22;7914;50.842;0.166;2023-06-19T05:06:49;17.30;100.00
15630;DHT22;7914;50.842;0.166;2023-06-19T05:09:16;17.90;100.00
15630;DHT22;7914;50.842;0.166;2023-06-19T05:11:42;18.00;96.80
15630;DHT22;7914;50.842;0.166;2023-06-19T05:14:07;18.30;96.40
15630;DHT22;7914;50.842;0.166;2023-06-19T05:16:34;18.70;93.30
15630;DHT22;7914;50.842;0.166;2023-06-19T05:19:00;18.90;92.70
15630;DHT22;7914;50.842;0.166;2023-06-19T05:21:26;18.90;90.90
15630;DHT22;7914;50.842;0.166;2023-06-19T05:23:52;18.70;94.40
15630;DHT22;7914;50.842;0.166;2023-06-19T05:26:19;19.10;92.40
15630;DHT22;7914;50.842;0.166;2023-06-19T05:28:45;19.50;89.50
15630;DHT22;7914;50.842;0.166;2023-06-19T05:31:11;19.60;89.40
15630;DHT22;7914;50.842;0.166;2023-06-19T05:33:36;19.80;87.60
15630;DHT22;7914;50.842;0.166;2023-06-19T05:36:02;19.70;88.50
15630;DHT22;7914;50.842;0.166;2023-06-19T05:38:28;19.60;88.40
15630;DHT22;7914;50.842;0.166;2023-06-19T05:40:56;20.10;87.80
15630;DHT22;7914;50.842;0.166;2023-06-19T05:43:22;21.10;83.60
15630;DHT22;7914;50.842;0.166;2023-06-19T05:45:50;22.00;79.30
15630;DHT22;7914;50.842;0.166;2023-06-19T05:48:15;21.80;77.80
15630;DHT22;7914;50.842;0.166;2023-06-19T05:50:41;22.00;78.10
15630;DHT22;7914;50.842;0.166;2023-06-19T05:53:07;22.40;76.60
15630;DHT22;7914;50.842;0.166;2023-06-19T05:55:32;21.80;76.90
15630;DHT22;7914;50.842;0.166;2023-06-19T05:57:58;21.10;79.30
15630;DHT22;7914;50.842;0.166;2023-06-19T06:00:24;20.20;84.30
15630;DHT22;7914;50.842;0.166;2023-06-19T06:02:50;20.00;85.00
15630;DHT22;7914;50.842;0.166;2023-06-19T06:05:18;20.00;85.10
15630;DHT22;7914;50.842;0.166;2023-06-19T06:16:22;20.20;85.90
15630;DHT22;7914;50.842;0.166;2023-06-19T06:18:47;20.10;85.40
15630;DHT22;7914;50.842;0.166;2023-06-19T06:21:13;20.30;85.20
15630;DHT22;7914;50.842;0.166;2023-06-19T06:23:41;20.40;85.00
15630;DHT22;7914;50.842;0.166;2023-06-19T06:26:07;20.20;84.80
15630;DHT22;7914;50.842;0.166;2023-06-19T06:28:32;20.20;85.40
15630;DHT22;7914;50.842;0.166;2023-06-19T06:30:58;20.60;85.50
15630;DHT22;7914;50.842;0.166;2023-06-19T06:33:24;20.00;84.70
15630;DHT22;7914;50.842;0.166;2023-06-19T06:35:49;20.00;87.00
15630;DHT22;7914;50.842;0.166;2023-06-19T06:38:17;20.30;86.70
15630;DHT22;7914;50.842;0.166;2023-06-19T06:40:42;20.60;82.30
15630;DHT22;7914;50.842;0.166;2023-06-19T06:43:08;20.40;82.70
15630;DHT22;7914;50.842;0.166;2023-06-19T06:45:34;20.60;83.50
15630;DHT22;7914;50.842;0.166;2023-06-19T06:48:04;20.50;81.40
15630;DHT22;7914;50.842;0.166;2023-06-19T06:50:30;20.00;84.00
15630;DHT22;7914;50.842;0.166;2023-06-19T06:52:57;19.70;85.10
15630;DHT22;7914;50.842;0.166;2023-06-19T06:55:23;19.60;86.30
15630;DHT22;7914;50.842;0.166;2023-06-19T06:57:49;19.70;86.50
15630;DHT22;7914;50.842;0.166;2023-06-19T07:00:15;20.80;82.10
15630;DHT22;7914;50.842;0.166;2023-06-19T07:02:41;21.20;83.50
15630;DHT22;7914;50.842;0.166;2023-06-19T07:05:08;22.20;76.70
15630;DHT22;7914;50.842;0.166;2023-06-19T07:07:34;22.40;77.10
15630;DHT22;7914;50.842;0.166;2023-06-19T07:10:00;22.30;74.40
15630;DHT22;7914;50.842;0.166;2023-06-19T07:12:26;22.30;75.10
15630;DHT22;7914;50.842;0.166;2023-06-19T07:14:55;21.50;77.60
15630;DHT22;7914;50.842;0.166;2023-06-19T07:17:21;21.30;79.70
15630;DHT22;7914;50.842;0.166;2023-06-19T07:19:46;21.10;80.50
15630;DHT22;7914;50.842;0.166;2023-06-19T07:22:13;21.50;79.70
15630;DHT22;7914;50.842;0.166;2023-06-19T07:24:40;21.50;79.20
15630;DHT22;7914;50.842;0.166;2023-06-19T07:27:06;21.60;78.90
15630;DHT22;7914;50.842;0.166;2023-06-19T07:29:32;21.70;79.40
15630;DHT22;7914;50.842;0.166;2023-06-19T07:31:58;21.60;79.30
15630;DHT22;7914;50.842;0.166;2023-06-19T07:34:24;21.10;79.60
15630;DHT22;7914;50.842;0.166;2023-06-19T07:36:50;21.00;81.80
15630;DHT22;7914;50.842;0.166;2023-06-19T07:39:16;20.90;81.40
15630;DHT22;7914;50.842;0.166;2023-06-19T07:41:42;21.10;82.20
15630;DHT22;7914;50.842;0.166;2023-06-19T07:44:08;21.40;79.50
15630;DHT22;7914;50.842;0.166;2023-06-19T07:46:33;21.10;80.30
15630;DHT22;7914;50.842;0.166;2023-06-19T07:48:59;20.70;81.30
15630;DHT22;7914;50.842;0.166;2023-06-19T07:51:25;20.40;81.90
15630;DHT22;7914;50.842;0.166;2023-06-19T07:53:50;19.80;84.50
15630;DHT22;7914;50.842;0.166;2023-06-19T07:56:16;19.70;86.00
15630;DHT22;7914;50.842;0.166;2023-06-19T07:58:42;19.30;86.50
15630;DHT22;7914;50.842;0.166;2023-06-19T08:01:07;19.00;87.80
15630;DHT22;7914;50.842;0.166;2023-06-19T08:03:33;18.60;91.50
15630;DHT22;7914;50.842;0.166;2023-06-19T08:05:59;19.10;90.90
15630;DHT22;7914;50.842;0.166;2023-06-19T08:08:24;19.90;87.80
15630;DHT22;7914;50.842;0.166;2023-06-19T08:10:50;20.60;83.00
15630;DHT22;7914;50.842;0.166;2023-06-19T08:13:16;20.30;83.10
15630;DHT22;7914;50.842;0.166;2023-06-19T08:15:41;19.40;87.20
15630;DHT22;7914;50.842;0.166;2023-06-19T08:18:07;19.60;87.80
15630;DHT22;7914;50.842;0.166;2023-06-19T08:20:33;19.60;88.40
15630;DHT22;7914;50.842;0.166;2023-06-19T08:22:58;19.90;87.80
15630;DHT22;7914;50.842;0.166;2023-06-19T08:25:24;19.80;86.80
15630;DHT22;7914;50.842;0.166;2023-06-19T08:27:50;20.10;87.60
15630;DHT22;7914;50.842;0.166;2023-06-19T08:30:15;20.30;83.10
15630;DHT22;7914;50.842;0.166;2023-06-19T08:32:47;19.70;86.50
15630;DHT22;7914;50.842;0.166;2023-06-19T08:35:14;19.60;87.90
15630;DHT22;7914;50.842;0.166;2023-06-19T08:37:40;19.30;88.70
15630;DHT22;7914;50.842;0.166;2023-06-19T08:40:07;19.10;89.50
15630;DHT22;7914;50.842;0.166;2023-06-19T08:42:35;19.10;90.00
15630;DHT22;7914;50.842;0.166;2023-06-19T08:45:01;18.60;91.90
15630;DHT22;7914;50.842;0.166;2023-06-19T08:47:31;18.90;92.40
15630;DHT22;7914;50.842;0.166;2023-06-19T08:49:58;19.00;90.70
15630;DHT22;7914;50.842;0.166;2023-06-19T08:52:24;19.70;90.90
15630;DHT22;7914;50.842;0.166;2023-06-19T08:54:49;20.30;86.10
15630;DHT22;7914;50.842;0.166;2023-06-19T08:57:15;20.60;85.70
15630;DHT22;7914;50.842;0.166;2023-06-19T08:59:48;20.20;84.50
15630;DHT22;7914;50.842;0.166;2023-06-19T09:02:14;20.10;86.60
15630;DHT22;7914;50.842;0.166;2023-06-19T09:04:40;19.70;87.30
15630;DHT22;7914;50.842;0.166;2023-06-19T09:07:08;19.40;89.40
15630;DHT22;7914;50.842;0.166;2023-06-19T09:09:33;19.70;88.90
15630;DHT22;7914;50.842;0.166;2023-06-19T09:12:04;19.90;89.20
15630;DHT22;7914;50.842;0.166;2023-06-19T09:14:34;20.20;86.20
15630;DHT22;7914;50.842;0.166;2023-06-19T09:17:05;20.50;85.30
15630;DHT22;7914;50.842;0.166;2023-06-19T09:19:32;20.20;85.40
15630;DHT22;7914;50.842;0.166;2023-06-19T09:22:09;20.20;86.00
15630;DHT22;7914;50.842;0.166;2023-06-19T09:24:39;20.60;86.30
15630;DHT22;7914;50.842;0.166;2023-06-19T09:27:12;20.80;84.50
15630;DHT22;7914;50.842;0.166;2023-06-19T09:29:43;21.10;83.70
15630;DHT22;7914;50.842;0.166;2023-06-19T09:32:20;21.20;81.90
15630;DHT22;7914;50.842;0.166;2023-06-19T09:34:47;20.70;83.90
15630;DHT22;7914;50.842;0.166;2023-06-19T09:37:14;20.80;85.50
15630;DHT22;7914;50.842;0.166;2023-06-19T09:39:41;20.50;86.60
15630;DHT22;7914;50.842;0.166;2023-06-19T09:42:12;20.50;85.50
15630;DHT22;7914;50.842;0.166;2023-06-19T09:44:42;20.20;86.00
15630;DHT22;7914;50.842;0.166;2023-06-19T09:47:32;20.50;86.30
15630;DHT22;7914;50.842;0.166;2023-06-19T09:50:02;20.50;86.80
15630;DHT22;7914;50.842;0.166;2023-06-19T09:52:28;20.40;87.20
15630;DHT22;7914;50.842;0.166;2023-06-19T09:54:54;20.40;86.40
15630;DHT22;7914;50.842;0.166;2023-06-19T09:57:21;20.50;86.70
15630;DHT22;7914;50.842;0.166;2023-06-19T09:59:56;20.60;86.10
15630;DHT22;7914;50.842;0.166;2023-06-19T10:02:24;20.50;86.50
15630;DHT22;7914;50.842;0.166;2023-06-19T10:04:55;21.00;85.80
15630;DHT22;7914;50.842;0.166;2023-06-19T10:07:24;21.40;83.40
15630;DHT22;7914;50.842;0.166;2023-06-19T10:10:00;21.10;83.40
15630;DHT22;7914;50.842;0.166;2023-06-19T10:12:44;20.90;83.80
15630;DHT22;7914;50.842;0.166;2023-06-19T10:17:45;21.60;83.70
15630;DHT22;7914;50.842;0.166;2023-06-19T10:20:31;22.10;78.60
15630;DHT22;7914;50.842;0.166;2023-06-19T10:25:34;21.40;83.50
15630;DHT22;7914;50.842;0.166;2023-06-19T10:28:01;21.90;81.90
15630;DHT22;7914;50.842;0.166;2023-06-19T10:30:28;22.00;80.30
15630;DHT22;7914;50.842;0.166;2023-06-19T10:32:55;22.30;79.40
15630;DHT22;7914;50.842;0.166;2023-06-19T10:35:21;21.90;79.00
15630;DHT22;7914;50.842;0.166;2023-06-19T10:37:47;21.80;81.00
15630;DHT22;7914;50.842;0.166;2023-06-19T10:40:14;21.50;80.00
15630;DHT22;7914;50.842;0.166;2023-06-19T10:42:40;21.20;82.60
15630;DHT22;7914;50.842;0.166;2023-06-19T10:45:09;21.10;81.30
15630;DHT22;7914;50.842;0.166;2023-06-19T10:47:35;20.70;83.00
15630;DHT22;7914;50.842;0.166;2023-06-19T10:50:03;20.30;86.00
15630;DHT22;7914;50.842;0.166;2023-06-19T10:52:29;20.40;87.70
15630;DHT22;7914;50.842;0.166;2023-06-19T10:54:56;20.80;85.10
15630;DHT22;7914;50.842;0.166;2023-06-19T10:57:31;20.80;84.90
15630;DHT22;7914;50.842;0.166;2023-06-19T10:59:58;20.80;84.10
15630;DHT22;7914;50.842;0.166;2023-06-19T11:02:25;20.50;84.50
15630;DHT22;7914;50.842;0.166;2023-06-19T11:04:54;20.60;86.30
15630;DHT22;7914;50.842;0.166;2023-06-19T11:07:22;20.70;85.10
15630;DHT22;7914;50.842;0.166;2023-06-19T11:09:51;20.60;84.70
15630;DHT22;7914;50.842;0.166;2023-06-19T11:12:20;20.40;86.30
15630;DHT22;7914;50.842;0.166;2023-06-19T11:14:49;20.70;86.50
15630;DHT22;7914;50.842;0.166;2023-06-19T11:17:16;20.80;85.00
15630;DHT22;7914;50.842;0.166;2023-06-19T11:19:44;21.20;83.80
15630;DHT22;7914;50.842;0.166;2023-06-19T11:22:10;21.40;83.30
15630;DHT22;7914;50.842;0.166;2023-06-19T11:24:36;21.70;82.00
15630;DHT22;7914;50.842;0.166;2023-06-19T11:27:02;21.60;81.20
15630;DHT22;7914;50.842;0.166;2023-06-19T11:29:33;21.60;82.00
15630;DHT22;7914;50.842;0.166;2023-06-19T11:32:13;21.70;81.60
15630;DHT22;7914;50.842;0.166;2023-06-19T11:34:39;21.60;82.20
15630;DHT22;7914;50.842;0.166;2023-06-19T11:37:15;21.90;80.80
15630;DHT22;7914;50.842;0.166;2023-06-19T11:39:45;22.00;80.90
15630;DHT22;7914;50.842;0.166;2023-06-19T11:42:11;22.10;79.90
15630;DHT22;7914;50.842;0.166;2023-06-19T11:45:00;22.10;79.00
15630;DHT22;7914;50.842;0.166;2023-06-19T11:47:32;21.50;81.20
15630;DHT22;7914;50.842;0.166;2023-06-19T11:49:58;21.60;82.40
15630;DHT22;7914;50.842;0.166;2023-06-19T11:52:24;21.70;81.10
15630;DHT22;7914;50.842;0.166;2023-06-19T11:54:50;21.70;80.60
15630;DHT22;7914;50.842;0.166;2023-06-19T11:57:16;21.00;83.20
15630;DHT22;7914;50.842;0.166;2023-06-19T11:59:42;20.80;83.90
15630;DHT22;7914;50.842;0.166;2023-06-19T12:02:09;20.70;83.20
15630;DHT22;7914;50.842;0.166;2023-06-19T12:04:35;20.50;85.90
15630;DHT22;7914;50.842;0.166;2023-06-19T12:07:01;20.80;85.30
15630;DHT22;7914;50.842;0.166;2023-06-19T12:09:27;21.00;83.30
15630;DHT22;7914;50.842;0.166;2023-06-19T12:11:56;21.00;83.20
15630;DHT22;7914;50.842;0.166;2023-06-19T12:14:21;21.00;82.50
15630;DHT22;7914;50.842;0.166;2023-06-19T12:16:50;21.10;83.20
15630;DHT22;7914;50.842;0.166;2023-06-19T12:19:16;21.60;83.70
15630;DHT22;7914;50.842;0.166;2023-06-19T12:21:42;22.00;78.40
15630;DHT22;7914;50.842;0.166;2023-06-19T12:24:08;21.80;79.70
15630;DHT22;7914;50.842;0.166;2023-06-19T12:26:37;21.50;80.30
15630;DHT22;7914;50.842;0.166;2023-06-19T12:29:03;21.30;83.50
15630;DHT22;7914;50.842;0.166;2023-06-19T12:31:30;21.70;83.70
15630;DHT22;7914;50.842;0.166;2023-06-19T12:33:56;22.00;82.90
15630;DHT22;7914;50.842;0.166;2023-06-19T12:36:22;22.40;81.80
15630;DHT22;7914;50.842;0.166;2023-06-19T12:38:48;22.80;79.90
15630;DHT22;7914;50.842;0.166;2023-06-19T12:41:14;22.50;78.20
15630;DHT22;7914;50.842;0.166;2023-06-19T12:43:40;21.90;80.20
15630;DHT22;7914;50.842;0.166;2023-06-19T12:46:06;22.30;81.90
15630;DHT22;7914;50.842;0.166;2023-06-19T12:48:32;22.80;77.70
15630;DHT22;7914;50.842;0.166;2023-06-19T12:50:58;22.50;80.00
15630;DHT22;7914;50.842;0.166;2023-06-19T12:53:23;22.90;79.10
15630;DHT22;7914;50.842;0.166;2023-06-19T12:55:58;23.10;79.30
15630;DHT22;7914;50.842;0.166;2023-06-19T12:58:24;22.40;75.80
15630;DHT22;7914;50.842;0.166;2023-06-19T13:00:50;21.80;80.80
15630;DHT22;7914;50.842;0.166;2023-06-19T13:03:16;22.30;81.10
15630;DHT22;7914;50.842;0.166;2023-06-19T13:05:42;22.70;79.60
15630;DHT22;7914;50.842;0.166;2023-06-19T13:08:07;22.80;77.30
15630;DHT22;7914;50.842;0.166;2023-06-19T13:10:33;22.60;78.00
15630;DHT22;7914;50.842;0.166;2023-06-19T13:12:59;22.60;77.40
15630;DHT22;7914;50.842;0.166;2023-06-19T13:15:25;22.50;76.90
15630;DHT22;7914;50.842;0.166;2023-06-19T13:17:51;22.60;75.70
15630;DHT22;7914;50.842;0.166;2023-06-19T13:20:17;22.10;78.40
15630;DHT22;7914;50.842;0.166;2023-06-19T13:22:42;22.30;78.70
15630;DHT22;7914;50.842;0.166;2023-06-19T13:25:09;22.40;77.10
15630;DHT22;7914;50.842;0.166;2023-06-19T13:27:34;22.00;76.60
15630;DHT22;7914;50.842;0.166;2023-06-19T13:30:01;21.40;78.80
15630;DHT22;7914;50.842;0.166;2023-06-19T13:32:27;21.60;80.70
15630;DHT22;7914;50.842;0.166;2023-06-19T13:34:53;21.90;80.30
15630;DHT22;7914;50.842;0.166;2023-06-19T13:37:19;22.30;80.00
15630;DHT22;7914;50.842;0.166;2023-06-19T13:39:45;22.70;78.30
15630;DHT22;7914;50.842;0.166;2023-06-19T13:42:12;22.40;76.00
15630;DHT22;7914;50.842;0.166;2023-06-19T13:44:38;22.50;77.40
15630;DHT22;7914;50.842;0.166;2023-06-19T13:47:04;22.60;75.10
15630;DHT22;7914;50.842;0.166;2023-06-19T13:49:30;22.20;73.70
15630;DHT22;7914;50.842;0.166;2023-06-19T13:51:56;22.30;75.20
15630;DHT22;7914;50.842;0.166;2023-06-19T13:54:22;22.10;75.10
15630;DHT22;7914;50.842;0.166;2023-06-19T13:56:48;22.40;74.00
15630;DHT22;7914;50.842;0.166;2023-06-19T13:59:15;22.00;77.10
15630;DHT22;7914;50.842;0.166;2023-06-19T14:01:41;21.70;75.80
15630;DHT22;7914;50.842;0.166;2023-06-19T14:04:07;21.60;76.10
15630;DHT22;7914;50.842;0.166;2023-06-19T14:06:34;21.70;77.30
15630;DHT22;7914;50.842;0.166;2023-06-19T14:09:01;21.80;76.60
15630;DHT22;7914;50.842;0.166;2023-06-19T14:11:27;22.10;76.50
15630;DHT22;7914;50.842;0.166;2023-06-19T14:13:54;21.80;75.70
15630;DHT22;7914;50.842;0.166;2023-06-19T14:16:20;21.90;77.10
15630;DHT22;7914;50.842;0.166;2023-06-19T14:18:46;22.00;76.00
15630;DHT22;7914;50.842;0.166;2023-06-19T14:21:12;22.00;75.20
15630;DHT22;7914;50.842;0.166;2023-06-19T14:23:38;21.50;75.70
15630;DHT22;7914;50.842;0.166;2023-06-19T14:26:09;21.60;78.70
15630;DHT22;7914;50.842;0.166;2023-06-19T14:28:37;22.00;75.20
15630;DHT22;7914;50.842;0.166;2023-06-19T14:31:04;21.90;74.50
15630;DHT22;7914;50.842;0.166;2023-06-19T14:33:29;21.70;75.20
15630;DHT22;7914;50.842;0.166;2023-06-19T14:35:55;21.60;76.40
15630;DHT22;7914;50.842;0.166;2023-06-19T14:38:21;21.60;74.80
15630;DHT22;7914;50.842;0.166;2023-06-19T14:40:47;21.60;75.00
15630;DHT22;7914;50.842;0.166;2023-06-19T14:43:12;21.60;75.30
15630;DHT22;7914;50.842;0.166;2023-06-19T14:45:38;21.90;76.50
15630;DHT22;7914;50.842;0.166;2023-06-19T14:48:05;22.20;76.50
15630;DHT22;7914;50.842;0.166;2023-06-19T14:50:31;22.30;75.20
15630;DHT22;7914;50.842;0.166;2023-06-19T14:52:57;22.30;75.00
15630;DHT22;7914;50.842;0.166;2023-06-19T14:55:22;22.10;73.40
15630;DHT22;7914;50.842;0.166;2023-06-19T14:57:48;22.10;74.90
15630;DHT22;7914;50.842;0.166;2023-06-19T15:00:14;22.00;73.40
15630;DHT22;7914;50.842;0.166;2023-06-19T15:02:40;21.90;75.20
15630;DHT22;7914;50.842;0.166;2023-06-19T15:05:06;21.90;76.40
15630;DHT22;7914;50.842;0.166;2023-06-19T15:07:37;21.50;74.90
15630;DHT22;7914;50.842;0.166;2023-06-19T15:10:03;21.60;75.40
15630;DHT22;7914;50.842;0.166;2023-06-19T15:12:29;21.80;76.70
15630;DHT22;7914;50.842;0.166;2023-06-19T15:14:57;22.00;75.80
15630;DHT22;7914;50.842;0.166;2023-06-19T15:17:23;21.90;73.30
15630;DHT22;7914;50.842;0.166;2023-06-19T15:19:49;21.90;75.60
15630;DHT22;7914;50.842;0.166;2023-06-19T15:22:15;22.00;74.60
15630;DHT22;7914;50.842;0.166;2023-06-19T15:24:40;22.10;75.30
15630;DHT22;7914;50.842;0.166;2023-06-19T15:27:06;22.30;74.10
15630;DHT22;7914;50.842;0.166;2023-06-19T15:29:32;22.40;73.70
15630;DHT22;7914;50.842;0.166;2023-06-19T15:31:58;22.30;72.30
15630;DHT22;7914;50.842;0.166;2023-06-19T15:34:23;22.20;73.50
15630;DHT22;7914;50.842;0.166;2023-06-19T15:36:49;22.30;73.70
15630;DHT22;7914;50.842;0.166;2023-06-19T15:39:15;22.20;70.60
15630;DHT22;7914;50.842;0.166;2023-06-19T15:41:43;22.00;71.40
15630;DHT22;7914;50.842;0.166;2023-06-19T15:44:10;21.80;71.90
15630;DHT22;7914;50.842;0.166;2023-06-19T15:46:36;21.50;71.90
15630;DHT22;7914;50.842;0.166;2023-06-19T15:49:02;21.60;72.40
15630;DHT22;7914;50.842;0.166;2023-06-19T15:51:28;21.60;74.20